sensor_id;sensor_type;location;lat;lon;timestamp;P1;durP1;ratioP1;P2;durP2;ratioP2
75488;SDS011;64069;46.396;48.102;2023-05-27T00:01:18;23.23;;;6.22;;
75488;SDS011;64069;46.396;48.102;2023-05-27T00:03:48;22.55;;;4.38;;
75488;SDS011;64069;46.396;48.102;2023-05-27T00:06:15;30.73;;;5.68;;
75488;SDS011;64069;46.396;48.102;2023-05-27T00:08:40;19.00;;;3.90;;
75488;SDS011;64069;46.396;48.102;2023-05-27T00:11:09;24.23;;;4.22;;
75488;SDS011;64069;46.396;48.102;2023-05-27T00:13:35;21.75;;;4.47;;
75488;SDS011;64069;46.396;48.102;2023-05-27T00:16:01;21.48;;;4.15;;
75488;SDS011;64069;46.396;48.102;2023-05-27T00:18:28;22.73;;;4.03;;
75488;SDS011;64069;46.396;48.102;2023-05-27T00:20:58;25.45;;;5.00;;
75488;SDS011;64069;46.396;48.102;2023-05-27T00:23:24;22.30;;;5.00;;
75488;SDS011;64069;46.396;48.102;2023-05-27T00:25:50;17.20;;;4.68;;
75488;SDS011;64069;46.396;48.102;2023-05-27T00:28:16;26.05;;;5.32;;
75488;SDS011;64069;46.396;48.102;2023-05-27T00:30:43;17.17;;;4.45;;
75488;SDS011;64069;46.396;48.102;2023-05-27T00:33:09;19.60;;;4.55;;
75488;SDS011;64069;46.396;48.102;2023-05-27T00:35:35;21.15;;;4.82;;
75488;SDS011;64069;46.396;48.102;2023-05-27T00:38:01;18.67;;;4.20;;
75488;SDS011;64069;46.396;48.102;2023-05-27T00:40:30;19.15;;;4.30;;
75488;SDS011;64069;46.396;48.102;2023-05-27T00:42:56;17.33;;;4.30;;
75488;SDS011;64069;46.396;48.102;2023-05-27T00:45:22;15.65;;;4.10;;
75488;SDS011;64069;46.396;48.102;2023-05-27T00:47:48;18.83;;;3.90;;
75488;SDS011;64069;46.396;48.102;2023-05-27T00:50:16;24.63;;;4.78;;
75488;SDS011;64069;46.396;48.102;2023-05-27T00:52:42;18.80;;;4.55;;
75488;SDS011;64069;46.396;48.102;2023-05-27T00:55:09;28.38;;;5.10;;
75488;SDS011;64069;46.396;48.102;2023-05-27T00:57:35;22.80;;;5.07;;
75488;SDS011;64069;46.396;48.102;2023-05-27T01:00:02;16.27;;;4.93;;
75488;SDS011;64069;46.396;48.102;2023-05-27T01:02:32;22.08;;;4.22;;
75488;SDS011;64069;46.396;48.102;2023-05-27T01:04:58;20.20;;;4.50;;
75488;SDS011;64069;46.396;48.102;2023-05-27T01:07:27;19.98;;;4.25;;
75488;SDS011;64069;46.396;48.102;2023-05-27T01:10:03;22.55;;;4.78;;
75488;SDS011;64069;46.396;48.102;2023-05-27T01:12:33;27.17;;;5.32;;
75488;SDS011;64069;46.396;48.102;2023-05-27T01:15:21;21.17;;;4.20;;
75488;SDS011;64069;46.396;48.102;2023-05-27T01:17:48;20.30;;;4.90;;
75488;SDS011;64069;46.396;48.102;2023-05-27T01:20:19;17.42;;;4.38;;
75488;SDS011;64069;46.396;48.102;2023-05-27T01:22:47;27.42;;;5.35;;
75488;SDS011;64069;46.396;48.102;2023-05-27T01:25:17;21.92;;;5.32;;
75488;SDS011;64069;46.396;48.102;2023-05-27T01:27:46;25.08;;;6.10;;
75488;SDS011;64069;46.396;48.102;2023-05-27T01:30:13;27.58;;;5.68;;
75488;SDS011;64069;46.396;48.102;2023-05-27T01:35:12;18.63;;;3.67;;
75488;SDS011;64069;46.396;48.102;2023-05-27T01:37:45;20.15;;;4.15;;
75488;SDS011;64069;46.396;48.102;2023-05-27T01:40:13;20.45;;;4.15;;
75488;SDS011;64069;46.396;48.102;2023-05-27T01:42:40;17.23;;;4.45;;
75488;SDS011;64069;46.396;48.102;2023-05-27T01:45:09;20.42;;;3.92;;
75488;SDS011;64069;46.396;48.102;2023-05-27T01:47:36;24.40;;;3.88;;
75488;SDS011;64069;46.396;48.102;2023-05-27T01:50:02;15.82;;;4.20;;
75488;SDS011;64069;46.396;48.102;2023-05-27T01:52:29;21.98;;;5.90;;
75488;SDS011;64069;46.396;48.102;2023-05-27T01:54:55;20.85;;;4.13;;
75488;SDS011;64069;46.396;48.102;2023-05-27T01:57:23;17.13;;;3.78;;
75488;SDS011;64069;46.396;48.102;2023-05-27T01:59:50;19.15;;;4.18;;
75488;SDS011;64069;46.396;48.102;2023-05-27T02:02:17;25.58;;;4.95;;
75488;SDS011;64069;46.396;48.102;2023-05-27T02:04:43;20.10;;;4.20;;
75488;SDS011;64069;46.396;48.102;2023-05-27T02:07:09;19.52;;;5.05;;
75488;SDS011;64069;46.396;48.102;2023-05-27T02:09:36;18.52;;;4.43;;
75488;SDS011;64069;46.396;48.102;2023-05-27T02:12:02;18.85;;;4.68;;
75488;SDS011;64069;46.396;48.102;2023-05-27T02:14:29;19.65;;;4.60;;
75488;SDS011;64069;46.396;48.102;2023-05-27T02:16:56;15.15;;;4.25;;
75488;SDS011;64069;46.396;48.102;2023-05-27T02:19:23;17.27;;;4.78;;
75488;SDS011;64069;46.396;48.102;2023-05-27T02:21:50;17.90;;;4.22;;
75488;SDS011;64069;46.396;48.102;2023-05-27T02:24:16;18.80;;;4.20;;
75488;SDS011;64069;46.396;48.102;2023-05-27T02:26:42;20.73;;;4.82;;
75488;SDS011;64069;46.396;48.102;2023-05-27T02:29:08;14.82;;;4.38;;
75488;SDS011;64069;46.396;48.102;2023-05-27T02:31:34;19.45;;;4.35;;
75488;SDS011;64069;46.396;48.102;2023-05-27T02:33:59;13.65;;;4.38;;
75488;SDS011;64069;46.396;48.102;2023-05-27T02:36:26;18.92;;;4.10;;
75488;SDS011;64069;46.396;48.102;2023-05-27T02:38:52;22.20;;;4.65;;
75488;SDS011;64069;46.396;48.102;2023-05-27T02:41:18;21.70;;;5.32;;
75488;SDS011;64069;46.396;48.102;2023-05-27T02:43:44;18.27;;;4.95;;
75488;SDS011;64069;46.396;48.102;2023-05-27T02:46:10;19.75;;;4.20;;
75488;SDS011;64069;46.396;48.102;2023-05-27T02:48:36;21.58;;;4.40;;
75488;SDS011;64069;46.396;48.102;2023-05-27T02:51:02;22.98;;;5.10;;
75488;SDS011;64069;46.396;48.102;2023-05-27T02:53:28;23.95;;;5.70;;
75488;SDS011;64069;46.396;48.102;2023-05-27T02:55:54;18.80;;;4.68;;
75488;SDS011;64069;46.396;48.102;2023-05-27T02:58:20;18.17;;;4.53;;
75488;SDS011;64069;46.396;48.102;2023-05-27T03:00:46;16.90;;;5.93;;
75488;SDS011;64069;46.396;48.102;2023-05-27T03:03:14;25.83;;;5.47;;
75488;SDS011;64069;46.396;48.102;2023-05-27T03:05:41;18.33;;;5.97;;
75488;SDS011;64069;46.396;48.102;2023-05-27T03:08:07;21.20;;;6.00;;
75488;SDS011;64069;46.396;48.102;2023-05-27T03:10:34;20.38;;;6.90;;
75488;SDS011;64069;46.396;48.102;2023-05-27T03:13:00;26.25;;;7.25;;
75488;SDS011;64069;46.396;48.102;2023-05-27T03:15:27;32.22;;;10.40;;
75488;SDS011;64069;46.396;48.102;2023-05-27T03:17:56;27.50;;;7.75;;
75488;SDS011;64069;46.396;48.102;2023-05-27T03:20:24;32.88;;;9.13;;
75488;SDS011;64069;46.396;48.102;2023-05-27T03:22:51;39.75;;;12.80;;
75488;SDS011;64069;46.396;48.102;2023-05-27T03:25:17;36.85;;;12.38;;
75488;SDS011;64069;46.396;48.102;2023-05-27T03:27:43;31.67;;;7.97;;
75488;SDS011;64069;46.396;48.102;2023-05-27T03:30:13;21.48;;;6.60;;
75488;SDS011;64069;46.396;48.102;2023-05-27T03:32:44;25.42;;;6.15;;
75488;SDS011;64069;46.396;48.102;2023-05-27T03:35:11;18.10;;;6.40;;
75488;SDS011;64069;46.396;48.102;2023-05-27T03:37:37;24.45;;;6.40;;
75488;SDS011;64069;46.396;48.102;2023-05-27T03:40:06;26.48;;;6.38;;
75488;SDS011;64069;46.396;48.102;2023-05-27T03:42:34;19.80;;;5.90;;
75488;SDS011;64069;46.396;48.102;2023-05-27T03:45:00;23.20;;;6.22;;
75488;SDS011;64069;46.396;48.102;2023-05-27T03:47:27;19.88;;;6.10;;
75488;SDS011;64069;46.396;48.102;2023-05-27T03:49:53;27.15;;;6.90;;
75488;SDS011;64069;46.396;48.102;2023-05-27T03:52:19;24.25;;;5.45;;
75488;SDS011;64069;46.396;48.102;2023-05-27T03:54:45;23.83;;;5.93;;
75488;SDS011;64069;46.396;48.102;2023-05-27T03:57:12;25.30;;;6.13;;
75488;SDS011;64069;46.396;48.102;2023-05-27T03:59:38;24.92;;;6.03;;
75488;SDS011;64069;46.396;48.102;2023-05-27T04:02:04;23.10;;;6.40;;
75488;SDS011;64069;46.396;48.102;2023-05-27T04:04:30;13.73;;;5.43;;
75488;SDS011;64069;46.396;48.102;2023-05-27T04:06:56;30.20;;;7.50;;
75488;SDS011;64069;46.396;48.102;2023-05-27T04:09:22;21.85;;;6.75;;
75488;SDS011;64069;46.396;48.102;2023-05-27T04:11:48;17.50;;;6.55;;
75488;SDS011;64069;46.396;48.102;2023-05-27T04:14:13;36.10;;;7.10;;
75488;SDS011;64069;46.396;48.102;2023-05-27T04:16:40;25.35;;;6.40;;
75488;SDS011;64069;46.396;48.102;2023-05-27T04:19:06;22.13;;;6.28;;
75488;SDS011;64069;46.396;48.102;2023-05-27T04:21:33;19.73;;;7.40;;
75488;SDS011;64069;46.396;48.102;2023-05-27T04:24:02;32.15;;;8.50;;
75488;SDS011;64069;46.396;48.102;2023-05-27T04:26:29;30.25;;;8.20;;
75488;SDS011;64069;46.396;48.102;2023-05-27T04:28:56;32.72;;;9.05;;
75488;SDS011;64069;46.396;48.102;2023-05-27T04:31:26;27.40;;;8.70;;
75488;SDS011;64069;46.396;48.102;2023-05-27T04:33:58;30.92;;;7.57;;
75488;SDS011;64069;46.396;48.102;2023-05-27T04:36:24;30.38;;;7.38;;
75488;SDS011;64069;46.396;48.102;2023-05-27T04:39:00;23.75;;;7.53;;
75488;SDS011;64069;46.396;48.102;2023-05-27T04:41:28;22.80;;;7.18;;
75488;SDS011;64069;46.396;48.102;2023-05-27T04:44:11;19.20;;;7.28;;
75488;SDS011;64069;46.396;48.102;2023-05-27T04:46:41;27.85;;;7.22;;
75488;SDS011;64069;46.396;48.102;2023-05-27T04:49:09;27.73;;;7.65;;
75488;SDS011;64069;46.396;48.102;2023-05-27T04:51:36;22.75;;;6.82;;
75488;SDS011;64069;46.396;48.102;2023-05-27T04:54:03;23.92;;;6.32;;
75488;SDS011;64069;46.396;48.102;2023-05-27T04:56:32;26.35;;;7.65;;
75488;SDS011;64069;46.396;48.102;2023-05-27T04:58:58;32.42;;;7.55;;
75488;SDS011;64069;46.396;48.102;2023-05-27T05:01:33;17.45;;;5.20;;
75488;SDS011;64069;46.396;48.102;2023-05-27T05:04:28;19.27;;;6.53;;
75488;SDS011;64069;46.396;48.102;2023-05-27T05:07:00;31.33;;;6.30;;
75488;SDS011;64069;46.396;48.102;2023-05-27T05:09:27;21.80;;;5.65;;
75488;SDS011;64069;46.396;48.102;2023-05-27T05:11:57;27.65;;;7.90;;
75488;SDS011;64069;46.396;48.102;2023-05-27T05:14:23;26.02;;;7.38;;
75488;SDS011;64069;46.396;48.102;2023-05-27T05:16:50;23.05;;;6.90;;
75488;SDS011;64069;46.396;48.102;2023-05-27T05:19:17;22.10;;;5.85;;
75488;SDS011;64069;46.396;48.102;2023-05-27T05:21:43;26.00;;;5.80;;
75488;SDS011;64069;46.396;48.102;2023-05-27T05:24:11;25.10;;;5.85;;
75488;SDS011;64069;46.396;48.102;2023-05-27T05:26:38;25.75;;;5.00;;
75488;SDS011;64069;46.396;48.102;2023-05-27T05:29:05;21.42;;;6.55;;
75488;SDS011;64069;46.396;48.102;2023-05-27T05:31:33;21.33;;;5.97;;
75488;SDS011;64069;46.396;48.102;2023-05-27T05:33:59;19.38;;;5.60;;
75488;SDS011;64069;46.396;48.102;2023-05-27T05:36:26;24.27;;;5.85;;
75488;SDS011;64069;46.396;48.102;2023-05-27T05:38:58;26.33;;;6.63;;
75488;SDS011;64069;46.396;48.102;2023-05-27T05:41:25;28.60;;;6.70;;
75488;SDS011;64069;46.396;48.102;2023-05-27T05:43:52;18.90;;;5.43;;
75488;SDS011;64069;46.396;48.102;2023-05-27T05:46:18;21.33;;;7.20;;
75488;SDS011;64069;46.396;48.102;2023-05-27T05:48:44;14.20;;;5.97;;
75488;SDS011;64069;46.396;48.102;2023-05-27T05:51:14;18.25;;;5.18;;
75488;SDS011;64069;46.396;48.102;2023-05-27T05:53:44;28.40;;;5.65;;
75488;SDS011;64069;46.396;48.102;2023-05-27T05:56:10;27.45;;;6.60;;
75488;SDS011;64069;46.396;48.102;2023-05-27T05:58:36;33.53;;;9.35;;
75488;SDS011;64069;46.396;48.102;2023-05-27T06:01:03;40.28;;;10.68;;
75488;SDS011;64069;46.396;48.102;2023-05-27T06:03:36;52.25;;;10.75;;
75488;SDS011;64069;46.396;48.102;2023-05-27T06:06:05;40.90;;;10.75;;
75488;SDS011;64069;46.396;48.102;2023-05-27T06:08:35;36.90;;;9.05;;
75488;SDS011;64069;46.396;48.102;2023-05-27T06:11:07;42.45;;;9.40;;
75488;SDS011;64069;46.396;48.102;2023-05-27T06:13:34;47.83;;;10.20;;
75488;SDS011;64069;46.396;48.102;2023-05-27T06:16:02;34.35;;;7.75;;
75488;SDS011;64069;46.396;48.102;2023-05-27T06:18:29;24.05;;;7.43;;
75488;SDS011;64069;46.396;48.102;2023-05-27T06:20:55;39.33;;;10.35;;
75488;SDS011;64069;46.396;48.102;2023-05-27T06:23:23;32.30;;;6.05;;
75488;SDS011;64069;46.396;48.102;2023-05-27T06:26:15;25.38;;;6.55;;
75488;SDS011;64069;46.396;48.102;2023-05-27T06:28:47;31.42;;;6.03;;
75488;SDS011;64069;46.396;48.102;2023-05-27T06:31:15;39.13;;;6.72;;
75488;SDS011;64069;46.396;48.102;2023-05-27T06:33:41;23.80;;;5.32;;
75488;SDS011;64069;46.396;48.102;2023-05-27T06:36:08;22.95;;;5.25;;
75488;SDS011;64069;46.396;48.102;2023-05-27T06:38:34;21.38;;;4.68;;
75488;SDS011;64069;46.396;48.102;2023-05-27T06:41:01;26.00;;;4.45;;
75488;SDS011;64069;46.396;48.102;2023-05-27T06:43:27;18.13;;;4.72;;
75488;SDS011;64069;46.396;48.102;2023-05-27T06:46:20;15.95;;;4.35;;
75488;SDS011;64069;46.396;48.102;2023-05-27T06:48:54;20.05;;;4.25;;
75488;SDS011;64069;46.396;48.102;2023-05-27T06:51:20;22.85;;;4.63;;
75488;SDS011;64069;46.396;48.102;2023-05-27T06:53:46;18.48;;;4.28;;
75488;SDS011;64069;46.396;48.102;2023-05-27T06:56:18;23.67;;;5.70;;
75488;SDS011;64069;46.396;48.102;2023-05-27T06:59:17;19.08;;;3.92;;
75488;SDS011;64069;46.396;48.102;2023-05-27T07:01:43;16.60;;;3.78;;
75488;SDS011;64069;46.396;48.102;2023-05-27T07:04:12;18.90;;;4.40;;
75488;SDS011;64069;46.396;48.102;2023-05-27T07:09:20;20.42;;;5.47;;
75488;SDS011;64069;46.396;48.102;2023-05-27T07:11:46;26.08;;;5.05;;
75488;SDS011;64069;46.396;48.102;2023-05-27T07:14:32;22.98;;;4.53;;
75488;SDS011;64069;46.396;48.102;2023-05-27T07:16:59;14.57;;;4.05;;
75488;SDS011;64069;46.396;48.102;2023-05-27T07:19:25;20.92;;;4.05;;
75488;SDS011;64069;46.396;48.102;2023-05-27T07:21:56;21.83;;;4.65;;
75488;SDS011;64069;46.396;48.102;2023-05-27T07:24:24;24.88;;;5.53;;
75488;SDS011;64069;46.396;48.102;2023-05-27T07:26:52;18.38;;;4.97;;
75488;SDS011;64069;46.396;48.102;2023-05-27T07:29:19;22.33;;;5.13;;
75488;SDS011;64069;46.396;48.102;2023-05-27T07:31:51;23.58;;;5.10;;
75488;SDS011;64069;46.396;48.102;2023-05-27T07:34:23;16.73;;;4.03;;
75488;SDS011;64069;46.396;48.102;2023-05-27T07:36:51;18.30;;;5.20;;
75488;SDS011;64069;46.396;48.102;2023-05-27T07:39:17;20.25;;;6.18;;
75488;SDS011;64069;46.396;48.102;2023-05-27T07:41:43;25.92;;;5.70;;
75488;SDS011;64069;46.396;48.102;2023-05-27T07:44:09;23.95;;;5.45;;
75488;SDS011;64069;46.396;48.102;2023-05-27T07:46:35;16.40;;;4.60;;
75488;SDS011;64069;46.396;48.102;2023-05-27T07:49:05;25.50;;;4.88;;
75488;SDS011;64069;46.396;48.102;2023-05-27T07:51:35;26.13;;;5.43;;
75488;SDS011;64069;46.396;48.102;2023-05-27T07:54:02;16.92;;;4.93;;
75488;SDS011;64069;46.396;48.102;2023-05-27T07:56:28;37.45;;;11.68;;
75488;SDS011;64069;46.396;48.102;2023-05-27T07:58:55;35.30;;;11.95;;
75488;SDS011;64069;46.396;48.102;2023-05-27T08:01:21;30.50;;;10.65;;
75488;SDS011;64069;46.396;48.102;2023-05-27T08:03:51;64.85;;;17.17;;
75488;SDS011;64069;46.396;48.102;2023-05-27T08:06:17;113.25;;;43.55;;
75488;SDS011;64069;46.396;48.102;2023-05-27T08:08:58;96.55;;;37.25;;
75488;SDS011;64069;46.396;48.102;2023-05-27T08:11:45;67.28;;;23.83;;
75488;SDS011;64069;46.396;48.102;2023-05-27T08:14:38;24.92;;;8.65;;
75488;SDS011;64069;46.396;48.102;2023-05-27T08:17:24;26.33;;;7.97;;
75488;SDS011;64069;46.396;48.102;2023-05-27T08:20:17;25.50;;;7.15;;
75488;SDS011;64069;46.396;48.102;2023-05-27T08:22:47;22.30;;;6.32;;
75488;SDS011;64069;46.396;48.102;2023-05-27T08:25:36;24.13;;;6.05;;
75488;SDS011;64069;46.396;48.102;2023-05-27T08:28:14;18.65;;;5.03;;
75488;SDS011;64069;46.396;48.102;2023-05-27T08:30:46;26.45;;;5.75;;
75488;SDS011;64069;46.396;48.102;2023-05-27T08:33:20;22.20;;;6.90;;
75488;SDS011;64069;46.396;48.102;2023-05-27T08:35:50;27.15;;;6.28;;
75488;SDS011;64069;46.396;48.102;2023-05-27T08:38:16;29.00;;;7.60;;
75488;SDS011;64069;46.396;48.102;2023-05-27T08:40:43;27.92;;;7.22;;
75488;SDS011;64069;46.396;48.102;2023-05-27T08:43:10;27.58;;;7.15;;
75488;SDS011;64069;46.396;48.102;2023-05-27T08:45:41;17.75;;;6.03;;
75488;SDS011;64069;46.396;48.102;2023-05-27T08:48:09;22.17;;;6.20;;
75488;SDS011;64069;46.396;48.102;2023-05-27T08:50:37;25.35;;;7.45;;
75488;SDS011;64069;46.396;48.102;2023-05-27T08:53:04;24.35;;;7.13;;
75488;SDS011;64069;46.396;48.102;2023-05-27T08:55:31;24.75;;;5.63;;
75488;SDS011;64069;46.396;48.102;2023-05-27T08:57:59;23.70;;;6.03;;
75488;SDS011;64069;46.396;48.102;2023-05-27T09:00:31;12.52;;;4.93;;
75488;SDS011;64069;46.396;48.102;2023-05-27T09:03:14;18.85;;;5.65;;
75488;SDS011;64069;46.396;48.102;2023-05-27T09:05:42;21.05;;;6.07;;
75488;SDS011;64069;46.396;48.102;2023-05-27T09:08:07;23.17;;;6.00;;
75488;SDS011;64069;46.396;48.102;2023-05-27T09:10:41;17.40;;;4.82;;
75488;SDS011;64069;46.396;48.102;2023-05-27T09:13:08;14.45;;;4.25;;
75488;SDS011;64069;46.396;48.102;2023-05-27T09:15:34;19.65;;;5.05;;
75488;SDS011;64069;46.396;48.102;2023-05-27T09:18:05;17.70;;;5.28;;
75488;SDS011;64069;46.396;48.102;2023-05-27T09:20:30;23.67;;;5.35;;
75488;SDS011;64069;46.396;48.102;2023-05-27T09:22:57;14.25;;;4.68;;
75488;SDS011;64069;46.396;48.102;2023-05-27T09:25:25;21.20;;;6.22;;
75488;SDS011;64069;46.396;48.102;2023-05-27T09:27:54;20.23;;;5.13;;
75488;SDS011;64069;46.396;48.102;2023-05-27T09:30:21;17.88;;;4.65;;
75488;SDS011;64069;46.396;48.102;2023-05-27T09:33:00;25.15;;;5.88;;
75488;SDS011;64069;46.396;48.102;2023-05-27T09:35:27;20.08;;;5.45;;
75488;SDS011;64069;46.396;48.102;2023-05-27T09:37:53;17.42;;;5.00;;
75488;SDS011;64069;46.396;48.102;2023-05-27T09:40:19;22.73;;;6.20;;
75488;SDS011;64069;46.396;48.102;2023-05-27T09:42:48;24.45;;;5.75;;
75488;SDS011;64069;46.396;48.102;2023-05-27T09:45:16;22.02;;;6.20;;
75488;SDS011;64069;46.396;48.102;2023-05-27T09:47:50;20.63;;;5.50;;
75488;SDS011;64069;46.396;48.102;2023-05-27T09:50:18;21.63;;;7.00;;
75488;SDS011;64069;46.396;48.102;2023-05-27T09:52:46;22.20;;;6.32;;
75488;SDS011;64069;46.396;48.102;2023-05-27T09:55:13;27.15;;;6.35;;
75488;SDS011;64069;46.396;48.102;2023-05-27T09:57:40;21.42;;;5.10;;
75488;SDS011;64069;46.396;48.102;2023-05-27T10:00:07;19.50;;;5.57;;
75488;SDS011;64069;46.396;48.102;2023-05-27T10:02:39;19.10;;;5.55;;
75488;SDS011;64069;46.396;48.102;2023-05-27T10:05:14;22.90;;;5.22;;
75488;SDS011;64069;46.396;48.102;2023-05-27T10:07:42;19.77;;;5.45;;
75488;SDS011;64069;46.396;48.102;2023-05-27T10:10:15;16.77;;;4.35;;
75488;SDS011;64069;46.396;48.102;2023-05-27T10:12:47;22.60;;;4.57;;
75488;SDS011;64069;46.396;48.102;2023-05-27T10:15:26;27.15;;;4.53;;
75488;SDS011;64069;46.396;48.102;2023-05-27T10:17:54;18.35;;;4.18;;
75488;SDS011;64069;46.396;48.102;2023-05-27T10:20:40;19.30;;;4.93;;
75488;SDS011;64069;46.396;48.102;2023-05-27T10:23:11;15.70;;;4.43;;
75488;SDS011;64069;46.396;48.102;2023-05-27T10:25:38;12.65;;;4.55;;
75488;SDS011;64069;46.396;48.102;2023-05-27T10:28:06;15.68;;;3.95;;
75488;SDS011;64069;46.396;48.102;2023-05-27T10:30:51;16.67;;;3.85;;
75488;SDS011;64069;46.396;48.102;2023-05-27T10:33:27;13.32;;;3.72;;
75488;SDS011;64069;46.396;48.102;2023-05-27T10:35:55;14.30;;;4.90;;
75488;SDS011;64069;46.396;48.102;2023-05-27T10:38:21;16.55;;;4.80;;
75488;SDS011;64069;46.396;48.102;2023-05-27T10:40:47;16.83;;;4.40;;
75488;SDS011;64069;46.396;48.102;2023-05-27T10:43:23;19.00;;;4.88;;
75488;SDS011;64069;46.396;48.102;2023-05-27T10:46:08;22.30;;;4.40;;
75488;SDS011;64069;46.396;48.102;2023-05-27T10:48:38;15.20;;;4.20;;
75488;SDS011;64069;46.396;48.102;2023-05-27T10:51:07;13.90;;;4.57;;
75488;SDS011;64069;46.396;48.102;2023-05-27T10:53:36;22.63;;;5.38;;
75488;SDS011;64069;46.396;48.102;2023-05-27T10:56:02;17.17;;;4.72;;
75488;SDS011;64069;46.396;48.102;2023-05-27T10:58:29;20.40;;;4.45;;
75488;SDS011;64069;46.396;48.102;2023-05-27T11:00:58;18.92;;;5.30;;
75488;SDS011;64069;46.396;48.102;2023-05-27T11:03:28;15.50;;;4.07;;
75488;SDS011;64069;46.396;48.102;2023-05-27T11:06:01;14.88;;;3.70;;
75488;SDS011;64069;46.396;48.102;2023-05-27T11:08:34;12.82;;;4.20;;
75488;SDS011;64069;46.396;48.102;2023-05-27T11:11:07;18.00;;;4.65;;
75488;SDS011;64069;46.396;48.102;2023-05-27T11:16:02;18.45;;;4.40;;
75488;SDS011;64069;46.396;48.102;2023-05-27T11:21:05;16.48;;;4.78;;
75488;SDS011;64069;46.396;48.102;2023-05-27T11:23:33;12.73;;;4.47;;
75488;SDS011;64069;46.396;48.102;2023-05-27T11:26:10;13.55;;;4.00;;
75488;SDS011;64069;46.396;48.102;2023-05-27T11:28:51;17.13;;;5.30;;
75488;SDS011;64069;46.396;48.102;2023-05-27T11:33:46;14.15;;;5.00;;
75488;SDS011;64069;46.396;48.102;2023-05-27T11:36:17;23.60;;;4.80;;
75488;SDS011;64069;46.396;48.102;2023-05-27T11:38:51;16.42;;;4.10;;
75488;SDS011;64069;46.396;48.102;2023-05-27T11:41:22;17.33;;;4.70;;
75488;SDS011;64069;46.396;48.102;2023-05-27T11:43:54;22.07;;;4.50;;
75488;SDS011;64069;46.396;48.102;2023-05-27T11:46:22;18.08;;;4.47;;
75488;SDS011;64069;46.396;48.102;2023-05-27T11:48:48;13.55;;;4.90;;
75488;SDS011;64069;46.396;48.102;2023-05-27T11:51:15;14.25;;;5.07;;
75488;SDS011;64069;46.396;48.102;2023-05-27T11:53:43;19.00;;;5.70;;
75488;SDS011;64069;46.396;48.102;2023-05-27T11:56:11;17.17;;;5.33;;
75488;SDS011;64069;46.396;48.102;2023-05-27T11:58:37;16.88;;;5.30;;
75488;SDS011;64069;46.396;48.102;2023-05-27T12:01:03;12.70;;;4.43;;
75488;SDS011;64069;46.396;48.102;2023-05-27T12:03:30;16.65;;;4.72;;
75488;SDS011;64069;46.396;48.102;2023-05-27T12:05:58;21.10;;;5.40;;
75488;SDS011;64069;46.396;48.102;2023-05-27T12:08:24;18.10;;;4.60;;
75488;SDS011;64069;46.396;48.102;2023-05-27T12:10:50;13.85;;;4.70;;
75488;SDS011;64069;46.396;48.102;2023-05-27T12:13:19;12.63;;;4.40;;
75488;SDS011;64069;46.396;48.102;2023-05-27T12:15:48;20.20;;;5.82;;
75488;SDS011;64069;46.396;48.102;2023-05-27T12:18:15;22.17;;;7.25;;
75488;SDS011;64069;46.396;48.102;2023-05-27T12:20:43;17.38;;;4.72;;
75488;SDS011;64069;46.396;48.102;2023-05-27T12:23:09;15.50;;;5.13;;
75488;SDS011;64069;46.396;48.102;2023-05-27T12:25:35;16.27;;;4.18;;
75488;SDS011;64069;46.396;48.102;2023-05-27T12:28:01;19.00;;;4.65;;
75488;SDS011;64069;46.396;48.102;2023-05-27T12:30:28;20.73;;;4.47;;
75488;SDS011;64069;46.396;48.102;2023-05-27T12:32:54;11.90;;;4.15;;
75488;SDS011;64069;46.396;48.102;2023-05-27T12:35:20;15.88;;;6.15;;
75488;SDS011;64069;46.396;48.102;2023-05-27T12:37:46;13.80;;;4.63;;
75488;SDS011;64069;46.396;48.102;2023-05-27T12:40:12;22.98;;;6.95;;
75488;SDS011;64069;46.396;48.102;2023-05-27T12:42:40;17.58;;;5.43;;
75488;SDS011;64069;46.396;48.102;2023-05-27T12:45:08;18.88;;;5.07;;
75488;SDS011;64069;46.396;48.102;2023-05-27T12:47:34;15.60;;;6.68;;
75488;SDS011;64069;46.396;48.102;2023-05-27T12:50:01;25.65;;;5.72;;
75488;SDS011;64069;46.396;48.102;2023-05-27T12:52:27;15.45;;;4.75;;
75488;SDS011;64069;46.396;48.102;2023-05-27T12:54:53;21.50;;;5.25;;
75488;SDS011;64069;46.396;48.102;2023-05-27T12:57:19;18.05;;;5.43;;
75488;SDS011;64069;46.396;48.102;2023-05-27T12:59:48;24.90;;;7.82;;
75488;SDS011;64069;46.396;48.102;2023-05-27T13:02:13;39.63;;;11.45;;
75488;SDS011;64069;46.396;48.102;2023-05-27T13:04:39;15.82;;;4.78;;
75488;SDS011;64069;46.396;48.102;2023-05-27T13:07:09;16.10;;;4.75;;
75488;SDS011;64069;46.396;48.102;2023-05-27T13:09:35;12.60;;;5.18;;
75488;SDS011;64069;46.396;48.102;2023-05-27T13:12:01;14.80;;;3.67;;
75488;SDS011;64069;46.396;48.102;2023-05-27T13:14:27;15.60;;;4.50;;
75488;SDS011;64069;46.396;48.102;2023-05-27T13:16:53;11.48;;;4.07;;
75488;SDS011;64069;46.396;48.102;2023-05-27T13:19:23;14.30;;;5.68;;
75488;SDS011;64069;46.396;48.102;2023-05-27T13:21:49;13.35;;;4.47;;
75488;SDS011;64069;46.396;48.102;2023-05-27T13:24:15;21.15;;;6.65;;
75488;SDS011;64069;46.396;48.102;2023-05-27T13:26:41;19.40;;;8.48;;
75488;SDS011;64069;46.396;48.102;2023-05-27T13:29:07;12.57;;;4.63;;
75488;SDS011;64069;46.396;48.102;2023-05-27T13:31:33;14.88;;;4.65;;
75488;SDS011;64069;46.396;48.102;2023-05-27T13:34:00;13.43;;;3.95;;
75488;SDS011;64069;46.396;48.102;2023-05-27T13:36:26;12.23;;;4.35;;
75488;SDS011;64069;46.396;48.102;2023-05-27T13:38:53;13.50;;;5.78;;
75488;SDS011;64069;46.396;48.102;2023-05-27T13:41:19;16.08;;;4.30;;
75488;SDS011;64069;46.396;48.102;2023-05-27T13:43:45;18.92;;;6.45;;
75488;SDS011;64069;46.396;48.102;2023-05-27T13:46:11;12.00;;;5.03;;
75488;SDS011;64069;46.396;48.102;2023-05-27T13:48:37;11.77;;;4.63;;
75488;SDS011;64069;46.396;48.102;2023-05-27T13:51:03;20.10;;;5.25;;
75488;SDS011;64069;46.396;48.102;2023-05-27T13:53:31;13.90;;;4.30;;
75488;SDS011;64069;46.396;48.102;2023-05-27T13:55:57;11.43;;;4.32;;
75488;SDS011;64069;46.396;48.102;2023-05-27T13:58:23;22.42;;;7.28;;
75488;SDS011;64069;46.396;48.102;2023-05-27T14:00:50;25.52;;;7.90;;
75488;SDS011;64069;46.396;48.102;2023-05-27T14:03:17;18.52;;;6.40;;
75488;SDS011;64069;46.396;48.102;2023-05-27T14:05:43;26.33;;;7.03;;
75488;SDS011;64069;46.396;48.102;2023-05-27T14:08:10;18.13;;;7.00;;
75488;SDS011;64069;46.396;48.102;2023-05-27T14:10:35;18.73;;;5.90;;
75488;SDS011;64069;46.396;48.102;2023-05-27T14:13:01;13.82;;;4.97;;
75488;SDS011;64069;46.396;48.102;2023-05-27T14:15:28;16.85;;;5.20;;
75488;SDS011;64069;46.396;48.102;2023-05-27T14:17:55;17.98;;;4.60;;
75488;SDS011;64069;46.396;48.102;2023-05-27T14:20:22;14.23;;;4.72;;
75488;SDS011;64069;46.396;48.102;2023-05-27T14:22:49;20.23;;;5.05;;
75488;SDS011;64069;46.396;48.102;2023-05-27T14:25:15;15.15;;;4.28;;
75488;SDS011;64069;46.396;48.102;2023-05-27T14:27:42;19.00;;;5.75;;
75488;SDS011;64069;46.396;48.102;2023-05-27T14:30:08;19.08;;;6.22;;
75488;SDS011;64069;46.396;48.102;2023-05-27T14:32:38;22.08;;;7.20;;
75488;SDS011;64069;46.396;48.102;2023-05-27T14:35:04;18.40;;;6.70;;
75488;SDS011;64069;46.396;48.102;2023-05-27T14:37:30;17.10;;;6.53;;
75488;SDS011;64069;46.396;48.102;2023-05-27T14:39:56;20.10;;;6.75;;
75488;SDS011;64069;46.396;48.102;2023-05-27T14:42:22;55.58;;;20.27;;